logo
Search for airport 
image banner adimage banner adimage banner ad
image banner ad

4CL8 - Hanford Community Medical Center Helistop

Located in Hanford, United States

ICAO - 4CL8, IATA -

Data provided by Airmate  

General information

Coordinates: N36°19'47" W119°39'34"
Elevation is 251 feet MSL.
Magnetic variation is 15° East
View others Airports in California

Operational data

Special qualification required
Current time UTC:
Current local time:
Weather at : KHJO - Hanford Muni ( 3 km )
METAR: KHJO 042235Z AUTO 00000KT 10SM BKN026 18/11 A3009 RMK AO2 T01780106
View NOTAMs / SUP AIP / TFR affecting this airport [VIEW]
Communications frequencies: [VIEW]

Runways:

Airport contact information

Address: Hanford United States

Satellite view of 4CL8